Pagrindinis puslapis
METAR-TAF:

METAR-TAF

Oro uostai :

Al Wajh, Saudo Arabija

platuma: 26-12N, ilguma: 036-28E, Aukštis: 20 m

Dabartinis oras

Ataskaita buvo paskelbta 1 valandą ir 45 minutes, ne 22:00 UTC
Vėjas 3 kt iš Šiaurės Vakarų
Temperatūra 28°C
Drėgmė 70%
Slėgis 1006 hPa
Matomumas 10 km arba daugiau
nėra debesų žemiau 1500 m ir nėra kamuolinių lietaus debesų

METAR: OEWJ 242200Z 31003KT CAVOK 28/22 Q1006 NOSIG

Laikas: 02:45 (23:45 UTC)

Prognozė

Ataskaita buvo paskelbta 12 valandos ir 45 minutes, ne 11:00 UTC
Prognozė galioja nuo 24 metu 12 UTC su 25 metu 18 UTC
Vėjas 10 kt iš Šiaurės/Šiaurės Vakarų
Matomumas 10 km arba daugiau
nėra debesų žemiau 1500 m ir nėra kamuolinių lietaus debesų
Tapsmas
nuo 25 metu 00 UTC su 25 metu 02 UTC
Vėjas 3 kt nuo kintamojo kryptimis
Tapsmas
nuo 25 metu 08 UTC su 25 metu 10 UTC
Vėjas 10 kt iš Vakarų

TAF: OEWJ 241100Z 2412/2518 33010KT CAVOK BECMG 2500/2502 VRB03KT BECMG 2508/2510 28010KT

Orai ataskaitas ir orų prognozės (METAR, TAF).

turimą stotys yra geltonos ir raudonos taškus žemėlapyje.

Perkelti pele per norėdami pamatyti stoties vardą.

Tada spustelėkite, norėdami matyti oro stebėjimo ir prognozės.

Norėdami pakeisti žemėlapį: spustelėkite ant žalios mygtukų su juodo kryžiaus žemyn,; žalią mygtuką su brūkšneliu, jei norite nutolinti; arba žalių rodyklių gretimoms žemėlapius.


METAR-TAF: